^^
Meteo Knjazevac Station Historical Data
Daily Summary for March 19, 2021 Units:  Both    English   Metric
Daily Weekly Monthly Yearly Custom
  High: Low: Average:
Temperature: 84.7 °F /  29.3 °C 64.2 °F /  17.9 °C 71.3 °F /  21.8 °C
Dew Point: 75.5 °F /  24.2 °C 63.9 °F /  17.7 °C 68.4 °F /  20.2 °C
Humidity: 99% 72% 91%
Wind Speed: 10mph /  16.1km/h - 2mph /  3.2km/h
Wind Gust: 16mph /  25.7km/h - -
Wind- - SE
Pressure: 29.92 in /  1013.1 hPa 29.86 in /  1011.1 hPa -
Precipitation: 0.02 in /  0.51 mm    
Historical Graphs
 
 
Tabular Data for March 19, 2021
Time Temperature Dew Point Pressure Wind Wind Speed Wind Gust Humidity Rainfall Rate (Hourly) solar Conditions
00:00 65.5 °F /  18.6 °C 65.2 °F /  18.4 °C 29.89in /  1012.1hPa NE 3mph /  4.8km/h 5mph /  8km/h 99% 0.00in /  0mm 0 W/m2
00:10 65.5 °F /  18.6 °C 65.2 °F /  18.4 °C 29.90in /  1012.4hPa NE 2mph /  3.2km/h 5mph /  8km/h 99% 0.00in /  0mm 0 W/m2
00:20 65.5 °F /  18.6 °C 65.2 °F /  18.4 °C 29.89in /  1012.1hPa NE 2mph /  3.2km/h 2mph /  3.2km/h 99% 0.00in /  0mm 0 W/m2
00:30 65.5 °F /  18.6 °C 65.2 °F /  18.4 °C 29.89in /  1012.1hPa NE 2mph /  3.2km/h 2mph /  3.2km/h 99% 0.00in /  0mm 0 W/m2
00:40 65.5 °F /  18.6 °C 65.2 °F /  18.4 °C 29.89in /  1012.1hPa NE 2mph /  3.2km/h 2mph /  3.2km/h 99% 0.00in /  0mm 0 W/m2
00:50 65.5 °F /  18.6 °C 65.2 °F /  18.4 °C 29.90in /  1012.4hPa NE 1mph /  1.6km/h 2mph /  3.2km/h 99% 0.00in /  0mm 0 W/m2
01:00 65.3 °F /  18.5 °C 65 °F /  18.3 °C 29.88in /  1011.7hPa NE 2mph /  3.2km/h 2mph /  3.2km/h 99% 0.00in /  0mm 0 W/m2
01:10 65.3 °F /  18.5 °C 65 °F /  18.3 °C 29.89in /  1012.1hPa NE 1mph /  1.6km/h 2mph /  3.2km/h 99% 0.00in /  0mm 0 W/m2
01:20 65.3 °F /  18.5 °C 65 °F /  18.3 °C 29.89in /  1012.1hPa NE 1mph /  1.6km/h 2mph /  3.2km/h 99% 0.00in /  0mm 0 W/m2
01:30 65.3 °F /  18.5 °C 65 °F /  18.3 °C 29.89in /  1012.1hPa NE 1mph /  1.6km/h 1mph /  1.6km/h 99% 0.00in /  0mm 0 W/m2
01:40 65.3 °F /  18.5 °C 65 °F /  18.3 °C 29.89in /  1012.1hPa NE 1mph /  1.6km/h 1mph /  1.6km/h 99% 0.00in /  0mm 0 W/m2
01:50 65.1 °F /  18.4 °C 64.8 °F /  18.2 °C 29.89in /  1012.1hPa NE 1mph /  1.6km/h 1mph /  1.6km/h 99% 0.00in /  0mm 0 W/m2
02:00 65.1 °F /  18.4 °C 64.8 °F /  18.2 °C 29.89in /  1012.1hPa NE 1mph /  1.6km/h 1mph /  1.6km/h 99% 0.00in /  0mm 0 W/m2
02:10 65.1 °F /  18.4 °C 64.8 °F /  18.2 °C 29.89in /  1012.1hPa NE 1mph /  1.6km/h 1mph /  1.6km/h 99% 0.00in /  0mm 0 W/m2
02:20 65.1 °F /  18.4 °C 64.8 °F /  18.2 °C 29.89in /  1012.1hPa NE 1mph /  1.6km/h 1mph /  1.6km/h 99% 0.00in /  0mm 0 W/m2
02:30 65.1 °F /  18.4 °C 64.8 °F /  18.2 °C 29.89in /  1012.1hPa NE 1mph /  1.6km/h 1mph /  1.6km/h 99% 0.00in /  0mm 0 W/m2
02:40 65.1 °F /  18.4 °C 64.8 °F /  18.2 °C 29.89in /  1012.1hPa NE 1mph /  1.6km/h 1mph /  1.6km/h 99% 0.00in /  0mm 0 W/m2
02:50 65.1 °F /  18.4 °C 64.8 °F /  18.2 °C 29.90in /  1012.4hPa NE 1mph /  1.6km/h 1mph /  1.6km/h 99% 0.00in /  0mm 0 W/m2
03:00 65.1 °F /  18.4 °C 64.8 °F /  18.2 °C 29.90in /  1012.4hPa NE 1mph /  1.6km/h 1mph /  1.6km/h 99% 0.00in /  0mm 0 W/m2
03:10 65.3 °F /  18.5 °C 65 °F /  18.3 °C 29.89in /  1012.1hPa NE 1mph /  1.6km/h 1mph /  1.6km/h 99% 0.00in /  0mm 0 W/m2
03:20 65.3 °F /  18.5 °C 65 °F /  18.3 °C 29.89in /  1012.1hPa NE 1mph /  1.6km/h 1mph /  1.6km/h 99% 0.00in /  0mm 0 W/m2
03:30 65.3 °F /  18.5 °C 65 °F /  18.3 °C 29.89in /  1012.1hPa NE 1mph /  1.6km/h 1mph /  1.6km/h 99% 0.00in /  0mm 0 W/m2
03:40 65.3 °F /  18.5 °C 65 °F /  18.3 °C 29.89in /  1012.1hPa NE 1mph /  1.6km/h 1mph /  1.6km/h 99% 0.00in /  0mm 0 W/m2
03:50 65.3 °F /  18.5 °C 65 °F /  18.3 °C 29.89in /  1012.1hPa NNE 1mph /  1.6km/h 1mph /  1.6km/h 99% 0.00in /  0mm 0 W/m2
04:00 65.3 °F /  18.5 °C 65 °F /  18.3 °C 29.89in /  1012.1hPa NNE 1mph /  1.6km/h 1mph /  1.6km/h 99% 0.00in /  0mm 0 W/m2
04:10 65.3 °F /  18.5 °C 65 °F /  18.3 °C 29.89in /  1012.1hPa NW 1mph /  1.6km/h 1mph /  1.6km/h 99% 0.00in /  0mm 0 W/m2
04:20 65.1 °F /  18.4 °C 64.8 °F /  18.2 °C 29.90in /  1012.4hPa Calm   3mph /  4.8km/h 99% 0.00in /  0mm 0 W/m2
04:30 65.1 °F /  18.4 °C 64.8 °F /  18.2 °C 29.90in /  1012.4hPa Calm   5mph /  8km/h 99% 0.00in /  0mm 0 W/m2
04:40 64.9 °F /  18.3 °C 64.7 °F /  18.2 °C 29.90in /  1012.4hPa NW 1mph /  1.6km/h 1mph /  1.6km/h 99% 0.00in /  0mm 0 W/m2
04:50 64.9 °F /  18.3 °C 64.7 °F /  18.2 °C 29.90in /  1012.4hPa NW 1mph /  1.6km/h 1mph /  1.6km/h 99% 0.00in /  0mm 0 W/m2
05:00 64.9 °F /  18.3 °C 64.7 °F /  18.2 °C 29.90in /  1012.4hPa NW 1mph /  1.6km/h 1mph /  1.6km/h 99% 0.00in /  0mm 0 W/m2
05:10 64.8 °F /  18.2 °C 64.5 °F /  18.1 °C 29.91in /  1012.8hPa NNW 1mph /  1.6km/h 1mph /  1.6km/h 99% 0.00in /  0mm 2 W/m2
05:20 64.8 °F /  18.2 °C 64.5 °F /  18.1 °C 29.91in /  1012.8hPa North 1mph /  1.6km/h 3mph /  4.8km/h 99% 0.00in /  0mm 7 W/m2
05:30 64.7 °F /  18.2 °C 64.4 °F /  18 °C 29.90in /  1012.4hPa North 2mph /  3.2km/h 4mph /  6.4km/h 99% 0.00in /  0mm 14 W/m2
05:40 64.6 °F /  18.1 °C 64.3 °F /  17.9 °C 29.90in /  1012.4hPa North 1mph /  1.6km/h 1mph /  1.6km/h 99% 0.00in /  0mm 30 W/m2
05:50 64.4 °F /  18 °C 64.1 °F /  17.8 °C 29.91in /  1012.8hPa North 1mph /  1.6km/h 1mph /  1.6km/h 99% 0.00in /  0mm 47 W/m2
06:00 64.2 °F /  17.9 °C 63.9 °F /  17.7 °C 29.91in /  1012.8hPa North 1mph /  1.6km/h 1mph /  1.6km/h 99% 0.00in /  0mm 71 W/m2
06:10 64.4 °F /  18 °C 64.1 °F /  17.8 °C 29.91in /  1012.8hPa North 1mph /  1.6km/h 1mph /  1.6km/h 99% 0.00in /  0mm 83 W/m2
06:20 64.4 °F /  18 °C 64.1 °F /  17.8 °C 29.91in /  1012.8hPa NNW 1mph /  1.6km/h 1mph /  1.6km/h 99% 0.00in /  0mm 77 W/m2
06:30 64.8 °F /  18.2 °C 64.5 °F /  18.1 °C 29.91in /  1012.8hPa NNW 1mph /  1.6km/h 1mph /  1.6km/h 99% 0.00in /  0mm 124 W/m2
06:40 65.1 °F /  18.4 °C 64.8 °F /  18.2 °C 29.91in /  1012.8hPa NNW 1mph /  1.6km/h 1mph /  1.6km/h 99% 0.00in /  0mm 155 W/m2
06:50 65.3 °F /  18.5 °C 65.1 °F /  18.4 °C 29.91in /  1012.8hPa NNW 1mph /  1.6km/h 1mph /  1.6km/h 99% 0.00in /  0mm 192 W/m2
07:00 65.7 °F /  18.7 °C 65.4 °F /  18.6 °C 29.92in /  1013.1hPa Calm   1mph /  1.6km/h 99% 0.00in /  0mm 186 W/m2
07:10 65.8 °F /  18.8 °C 65.6 °F /  18.7 °C 29.91in /  1012.8hPa Calm   1mph /  1.6km/h 99% 0.00in /  0mm 173 W/m2
07:20 66 °F /  18.9 °C 65.7 °F /  18.7 °C 29.91in /  1012.8hPa Calm   1mph /  1.6km/h 99% 0.00in /  0mm 173 W/m2
07:30 66 °F /  18.9 °C 65.7 °F /  18.7 °C 29.91in /  1012.8hPa Calm     99% 0.00in /  0mm 208 W/m2
07:40 66.2 °F /  19 °C 65.9 °F /  18.8 °C 29.91in /  1012.8hPa Calm     99% 0.00in /  0mm 344 W/m2
07:50 66.2 °F /  19 °C 65.9 °F /  18.8 °C 29.91in /  1012.8hPa SW 5mph /  8km/h 6mph /  9.7km/h 99% 0.00in /  0mm 357 W/m2
08:00 66.4 °F /  19.1 °C 66.1 °F /  18.9 °C 29.91in /  1012.8hPa SSW 6mph /  9.7km/h 8mph /  12.9km/h 99% 0.00in /  0mm 391 W/m2
08:10 66.7 °F /  19.3 °C 66.5 °F /  19.2 °C 29.91in /  1012.8hPa SSW 8mph /  12.9km/h 10mph /  16.1km/h 99% 0.00in /  0mm 423 W/m2
08:20 67.1 °F /  19.5 °C 66.8 °F /  19.3 °C 29.91in /  1012.8hPa SSE 2mph /  3.2km/h 8mph /  12.9km/h 99% 0.00in /  0mm 463 W/m2
08:30 67.3 °F /  19.6 °C 67 °F /  19.4 °C 29.91in /  1012.8hPa ENE 1mph /  1.6km/h 7mph /  11.3km/h 99% 0.00in /  0mm 509 W/m2
08:40 67.7 °F /  19.8 °C 67.4 °F /  19.7 °C 29.91in /  1012.8hPa NE 1mph /  1.6km/h 1mph /  1.6km/h 99% 0.00in /  0mm 377 W/m2
08:50 68 °F /  20 °C 67.7 °F /  19.8 °C 29.91in /  1012.8hPa NE 1mph /  1.6km/h 1mph /  1.6km/h 99% 0.00in /  0mm 575 W/m2
09:00 68.6 °F /  20.3 °C 68.3 °F /  20.2 °C 29.91in /  1012.8hPa NNE 1mph /  1.6km/h 1mph /  1.6km/h 99% 0.00in /  0mm 603 W/m2
09:10 69.8 °F /  21 °C 69.6 °F /  20.9 °C 29.91in /  1012.8hPa NNW 1mph /  1.6km/h 6mph /  9.7km/h 99% 0.00in /  0mm 648 W/m2
09:20 70.9 °F /  21.6 °C 69.4 °F /  20.8 °C 29.91in /  1012.8hPa SSW 9mph /  14.5km/h 10mph /  16.1km/h 95% 0.00in /  0mm 530 W/m2
09:30 71.7 °F /  22.1 °C 69.8 °F /  21 °C 29.91in /  1012.8hPa SSE 1mph /  1.6km/h 10mph /  16.1km/h 94% 0.00in /  0mm 713 W/m2
09:40 72.5 °F /  22.5 °C 70.7 °F /  21.5 °C 29.91in /  1012.8hPa NE 1mph /  1.6km/h 2mph /  3.2km/h 94% 0.00in /  0mm 737 W/m2
09:50 73.3 °F /  22.9 °C 70.5 °F /  21.4 °C 29.91in /  1012.8hPa NE 1mph /  1.6km/h 2mph /  3.2km/h 91% 0.00in /  0mm 681 W/m2
10:00 73.8 °F /  23.2 °C 70.7 °F /  21.5 °C 29.91in /  1012.8hPa NE 1mph /  1.6km/h 4mph /  6.4km/h 90% 0.00in /  0mm 751 W/m2
10:10 74.7 °F /  23.7 °C 71.5 °F /  21.9 °C 29.91in /  1012.8hPa Calm   5mph /  8km/h 90% 0.00in /  0mm 803 W/m2
10:20 75.6 °F /  24.2 °C 71.1 °F /  21.7 °C 29.91in /  1012.8hPa WNW 1mph /  1.6km/h 3mph /  4.8km/h 86% 0.00in /  0mm 823 W/m2
10:30 76.1 °F /  24.5 °C 71.6 °F /  22 °C 29.91in /  1012.8hPa West 1mph /  1.6km/h 5mph /  8km/h 86% 0.00in /  0mm 842 W/m2
10:40 77.1 °F /  25.1 °C 72.5 °F /  22.5 °C 29.91in /  1012.8hPa West 1mph /  1.6km/h 7mph /  11.3km/h 86% 0.00in /  0mm 859 W/m2
10:50 77.7 °F /  25.4 °C 72.8 °F /  22.7 °C 29.91in /  1012.8hPa NW 1mph /  1.6km/h 6mph /  9.7km/h 85% 0.00in /  0mm 277 W/m2
11:00 78.1 °F /  25.6 °C 71.8 °F /  22.1 °C 29.91in /  1012.8hPa North 1mph /  1.6km/h 7mph /  11.3km/h 81% 0.00in /  0mm 802 W/m2
11:10 78.4 °F /  25.8 °C 71.8 °F /  22.1 °C 29.91in /  1012.8hPa North 2mph /  3.2km/h 5mph /  8km/h 80% 0.00in /  0mm 848 W/m2
11:30 79.5 °F /  26.4 °C 72.1 °F /  22.3 °C 29.90in /  1012.4hPa North 3mph /  4.8km/h 7mph /  11.3km/h 78% 0.00in /  0mm 592 W/m2
11:40 79.9 °F /  26.6 °C 72.8 °F /  22.7 °C 29.90in /  1012.4hPa NNE 2mph /  3.2km/h 8mph /  12.9km/h 79% 0.00in /  0mm 615 W/m2
11:50 80.6 °F /  27 °C 73.5 °F /  23.1 °C 29.90in /  1012.4hPa North 2mph /  3.2km/h 7mph /  11.3km/h 79% 0.00in /  0mm 942 W/m2
12:00 81.1 °F /  27.3 °C 74 °F /  23.3 °C 29.90in /  1012.4hPa North 3mph /  4.8km/h 11mph /  17.7km/h 79% 0.00in /  0mm 948 W/m2
12:10 81.9 °F /  27.7 °C 73.9 °F /  23.3 °C 29.89in /  1012.1hPa NE 3mph /  4.8km/h 8mph /  12.9km/h 77% 0.00in /  0mm 953 W/m2
12:20 82.1 °F /  27.8 °C 74.6 °F /  23.7 °C 29.89in /  1012.1hPa North 5mph /  8km/h 9mph /  14.5km/h 78% 0.00in /  0mm 788 W/m2
12:30 82.4 °F /  28 °C 73.7 °F /  23.2 °C 29.89in /  1012.1hPa North 5mph /  8km/h 10mph /  16.1km/h 75% 0.00in /  0mm 958 W/m2
12:40 82.4 °F /  28 °C 74.5 °F /  23.6 °C 29.89in /  1012.1hPa NNE 2mph /  3.2km/h 9mph /  14.5km/h 77% 0.00in /  0mm 958 W/m2
12:50 82.9 °F /  28.3 °C 75.4 °F /  24.1 °C 29.88in /  1011.7hPa NNE 1mph /  1.6km/h 8mph /  12.9km/h 78% 0.00in /  0mm 956 W/m2
13:00 83.3 °F /  28.5 °C 74.5 °F /  23.6 °C 29.88in /  1011.7hPa North 2mph /  3.2km/h 8mph /  12.9km/h 75% 0.00in /  0mm 680 W/m2
13:10 83.8 °F /  28.8 °C 74.3 °F /  23.5 °C 29.88in /  1011.7hPa North 5mph /  8km/h 9mph /  14.5km/h 73% 0.00in /  0mm 456 W/m2
13:20 84 °F /  28.9 °C 74 °F /  23.3 °C 29.87in /  1011.4hPa North 3mph /  4.8km/h 8mph /  12.9km/h 72% 0.00in /  0mm 942 W/m2
13:30 84.4 °F /  29.1 °C 74.4 °F /  23.6 °C 29.87in /  1011.4hPa NNE 2mph /  3.2km/h 8mph /  12.9km/h 72% 0.00in /  0mm 935 W/m2
13:40 84.7 °F /  29.3 °C 75.1 °F /  23.9 °C 29.87in /  1011.4hPa NNE 3mph /  4.8km/h 8mph /  12.9km/h 73% 0.00in /  0mm 371 W/m2
13:50 84.7 °F /  29.3 °C 75.5 °F /  24.2 °C 29.86in /  1011.1hPa North 1mph /  1.6km/h 8mph /  12.9km/h 74% 0.00in /  0mm 715 W/m2
14:00 84.7 °F /  29.3 °C 75.1 °F /  23.9 °C 29.86in /  1011.1hPa NNW 2mph /  3.2km/h 7mph /  11.3km/h 73% 0.00in /  0mm 584 W/m2
14:10 84.4 °F /  29.1 °C 74.8 °F /  23.8 °C 29.86in /  1011.1hPa North 1mph /  1.6km/h 8mph /  12.9km/h 73% 0.00in /  0mm 367 W/m2
14:20 84 °F /  28.9 °C 74 °F /  23.3 °C 29.87in /  1011.4hPa North 1mph /  1.6km/h 9mph /  14.5km/h 72% 0.00in /  0mm 316 W/m2
14:30 83.6 °F /  28.7 °C 74 °F /  23.3 °C 29.86in /  1011.1hPa North 3mph /  4.8km/h 6mph /  9.7km/h 73% 0.00in /  0mm 226 W/m2
14:40 83.1 °F /  28.4 °C 73.6 °F /  23.1 °C 29.86in /  1011.1hPa NNW 1mph /  1.6km/h 6mph /  9.7km/h 73% 0.00in /  0mm 147 W/m2
14:50 82.6 °F /  28.1 °C 73.4 °F /  23 °C 29.86in /  1011.1hPa West 2mph /  3.2km/h 4mph /  6.4km/h 74% 0.01in /  0.25mm 125 W/m2
15:00 81.7 °F /  27.6 °C 74.1 °F /  23.4 °C 29.86in /  1011.1hPa SW 7mph /  11.3km/h 13mph /  20.9km/h 78% 0.00in /  0mm 45 W/m2
15:10 79.8 °F /  26.6 °C 73.1 °F /  22.8 °C 29.87in /  1011.4hPa SW 7mph /  11.3km/h 14mph /  22.5km/h 80% 0.00in /  0mm 80 W/m2
15:20 78.6 °F /  25.9 °C 73 °F /  22.8 °C 29.88in /  1011.7hPa SW 10mph /  16.1km/h 16mph /  25.7km/h 83% 0.00in /  0mm 93 W/m2
15:30 77.5 °F /  25.3 °C 72.3 °F /  22.4 °C 29.88in /  1011.7hPa WSW 10mph /  16.1km/h 15mph /  24.1km/h 84% 0.00in /  0mm 123 W/m2
15:40 75.7 °F /  24.3 °C 68.3 °F /  20.2 °C 29.88in /  1011.7hPa WSW 8mph /  12.9km/h 14mph /  22.5km/h 78% 0.00in /  0mm 195 W/m2
Knjazevac, Serbia
Compliments of Weather Underground - 2 mb